createdAt,value
2023-01-28T00:00:54.765Z,3.20
2023-01-28T00:03:40.547Z,3.42
2023-01-28T00:06:25.532Z,3.67
2023-01-28T00:09:10.955Z,3.58
2023-01-28T00:11:55.966Z,3.50
2023-01-28T00:14:41.238Z,3.78
2023-01-28T00:17:26.450Z,3.97
2023-01-28T00:20:12.481Z,3.40
2023-01-28T00:22:57.591Z,3.58
2023-01-28T00:25:42.746Z,3.47
2023-01-28T00:28:28.346Z,3.53
2023-01-28T00:31:19.934Z,3.63
2023-01-28T00:34:04.984Z,3.25
2023-01-28T00:36:57.844Z,3.83
2023-01-28T00:39:43.067Z,3.88
2023-01-28T00:42:28.220Z,3.30
2023-01-28T00:45:14.841Z,3.67
2023-01-28T00:48:00.545Z,3.47
2023-01-28T00:50:45.719Z,3.58
2023-01-28T00:53:34.542Z,4.03
2023-01-28T00:56:19.904Z,3.47
2023-01-28T00:59:05.596Z,3.67
2023-01-28T01:01:50.815Z,3.92
2023-01-28T01:04:36.218Z,3.53
2023-01-28T01:07:34.873Z,3.33
2023-01-28T01:10:20.181Z,3.67
2023-01-28T01:13:06.420Z,3.75
2023-01-28T01:16:09.646Z,3.15
2023-01-28T01:18:56.172Z,3.63
2023-01-28T01:21:41.586Z,3.35
2023-01-28T01:24:29.617Z,3.60
2023-01-28T01:27:15.323Z,3.53
2023-01-28T01:30:00.717Z,3.40
2023-01-28T01:32:46.067Z,3.42
2023-01-28T01:35:31.481Z,3.15
2023-01-28T01:38:16.804Z,3.53
2023-01-28T01:41:03.227Z,2.88
2023-01-28T01:43:54.708Z,2.97
2023-01-28T01:46:50.919Z,3.63
2023-01-28T01:49:36.724Z,3.60
2023-01-28T01:52:28.754Z,4.15
2023-01-28T01:55:18.309Z,3.03
2023-01-28T01:58:08.204Z,3.25
2023-01-28T02:00:53.655Z,3.30
2023-01-28T02:03:50.449Z,3.22
2023-01-28T02:06:37.864Z,3.45
2023-01-28T02:09:26.089Z,3.03
2023-01-28T02:12:21.331Z,3.00
2023-01-28T02:15:14.188Z,3.83
2023-01-28T02:18:00.142Z,3.22
2023-01-28T02:21:08.154Z,3.72
2023-01-28T02:24:18.522Z,2.92
2023-01-28T02:27:21.880Z,3.40
2023-01-28T02:30:33.354Z,3.42
2023-01-28T02:33:30.153Z,2.92
2023-01-28T02:36:27.795Z,3.60
2023-01-28T02:39:18.421Z,3.08
2023-01-28T02:42:13.523Z,3.95
2023-01-28T02:44:58.931Z,3.25
2023-01-28T02:48:00.097Z,2.95
2023-01-28T02:50:58.178Z,3.22
2023-01-28T02:53:54.905Z,3.10
2023-01-28T02:56:50.812Z,3.00
2023-01-28T03:00:06.308Z,3.10
2023-01-28T03:03:12.748Z,2.80
2023-01-28T03:06:06.987Z,3.08
2023-01-28T03:09:17.383Z,2.47
2023-01-28T03:12:29.123Z,2.90
2023-01-28T03:15:36.011Z,2.72
2023-01-28T03:19:08.383Z,2.38
2023-01-28T03:22:13.860Z,2.40
2023-01-28T03:25:18.683Z,2.88
2023-01-28T03:28:29.136Z,2.33
2023-01-28T03:31:39.468Z,2.65
2023-01-28T03:34:43.355Z,2.53
2023-01-28T03:37:29.892Z,2.83
2023-01-28T03:40:24.279Z,3.10
2023-01-28T03:43:09.534Z,2.72
2023-01-28T03:45:55.523Z,2.67
2023-01-28T03:48:41.451Z,2.22
2023-01-28T03:51:29.434Z,2.40
2023-01-28T03:54:14.763Z,2.30
2023-01-28T03:57:00.983Z,2.20
2023-01-28T03:59:46.243Z,2.20
2023-01-28T04:02:31.966Z,2.22
2023-01-28T04:05:19.804Z,2.63
2023-01-28T04:08:07.580Z,2.30
2023-01-28T04:11:20.115Z,2.22
2023-01-28T04:14:06.421Z,2.40
2023-01-28T04:17:02.539Z,2.33
2023-01-28T04:19:47.975Z,2.40
2023-01-28T04:22:34.755Z,2.08
2023-01-28T04:25:20.138Z,2.22
2023-01-28T04:28:05.498Z,1.65
2023-01-28T04:30:52.105Z,2.25
2023-01-28T04:33:55.567Z,2.40
2023-01-28T04:39:42.917Z,1.83
2023-01-28T04:42:35.474Z,2.17
2023-01-28T04:45:29.544Z,2.22
2023-01-28T04:48:38.315Z,2.00
2023-01-28T04:51:34.788Z,2.38
2023-01-28T04:54:45.195Z,2.00
2023-01-28T04:57:30.671Z,1.83
2023-01-28T05:00:16.354Z,2.20
2023-01-28T05:03:01.863Z,2.08
2023-01-28T05:05:47.034Z,1.70
2023-01-28T05:08:40.800Z,1.75
2023-01-28T05:11:26.291Z,2.03
2023-01-28T05:14:17.116Z,2.22
2023-01-28T05:17:15.916Z,1.85
2023-01-28T05:20:01.654Z,2.00
2023-01-28T05:22:47.768Z,2.10
2023-01-28T05:25:41.228Z,2.28
2023-01-28T05:28:26.454Z,2.03
2023-01-28T05:31:14.919Z,2.08
2023-01-28T05:34:00.086Z,2.20
2023-01-28T05:36:45.319Z,2.80
2023-01-28T05:39:53.555Z,3.42
2023-01-28T05:42:39.005Z,3.85
2023-01-28T05:45:40.256Z,3.10
2023-01-28T05:48:34.354Z,3.22
2023-01-28T05:51:29.270Z,2.47
2023-01-28T05:54:16.042Z,5.30
2023-01-28T05:57:01.632Z,6.75
2023-01-28T05:59:47.760Z,5.75
2023-01-28T06:02:32.945Z,6.40
2023-01-28T06:05:19.445Z,7.82
2023-01-28T06:08:05.162Z,7.57
2023-01-28T06:10:50.406Z,9.73
2023-01-28T06:13:35.822Z,8.93
2023-01-28T06:16:44.119Z,9.80
2023-01-28T06:19:41.013Z,9.15
2023-01-28T06:22:27.075Z,9.82
2023-01-28T06:25:12.443Z,8.43
2023-01-28T06:27:57.607Z,8.35
2023-01-28T06:30:43.289Z,7.70
2023-01-28T06:33:29.440Z,9.00
2023-01-28T06:36:14.840Z,9.07
2023-01-28T06:39:00.218Z,8.23
2023-01-28T06:41:48.326Z,8.23
2023-01-28T06:44:33.423Z,6.60
2023-01-28T06:47:18.634Z,5.60
2023-01-28T06:50:04.532Z,3.80
2023-01-28T06:52:49.818Z,2.60
2023-01-28T06:55:35.381Z,3.38
2023-01-28T06:58:20.971Z,3.75
2023-01-28T07:01:06.577Z,4.70
2023-01-28T07:03:51.658Z,4.78
2023-01-28T07:06:37.310Z,5.05
2023-01-28T07:09:22.514Z,5.20
2023-01-28T07:12:08.332Z,4.75
2023-01-28T07:14:53.637Z,4.97
2023-01-28T07:17:41.959Z,4.35
2023-01-28T07:20:27.469Z,5.00
2023-01-28T07:23:12.742Z,3.90
2023-01-28T07:26:02.385Z,3.30
2023-01-28T07:28:47.816Z,3.88
2023-01-28T07:31:33.085Z,3.70
2023-01-28T07:34:18.300Z,3.10
2023-01-28T07:37:03.963Z,2.70
2023-01-28T07:39:49.278Z,3.03
2023-01-28T07:42:34.663Z,2.53
2023-01-28T07:45:31.923Z,2.33
2023-01-28T07:48:17.027Z,2.03
2023-01-28T07:51:02.630Z,1.75
2023-01-28T07:53:47.781Z,2.00
2023-01-28T07:56:33.069Z,1.88
2023-01-28T07:59:18.756Z,1.85
2023-01-28T08:02:04.288Z,1.50
2023-01-28T08:04:50.171Z,1.55
2023-01-28T08:07:35.275Z,1.63
2023-01-28T08:10:20.782Z,1.77
2023-01-28T08:13:06.789Z,2.28
2023-01-28T08:15:56.458Z,2.15
2023-01-28T08:18:41.537Z,2.30
2023-01-28T08:21:26.953Z,1.80
2023-01-28T08:24:12.262Z,2.33
2023-01-28T08:26:57.482Z,2.10
2023-01-28T08:29:43.619Z,2.63
2023-01-28T08:32:30.734Z,2.63
2023-01-28T08:35:16.276Z,2.45
2023-01-28T08:38:02.587Z,2.22
2023-01-28T08:40:50.454Z,2.22
2023-01-28T08:43:35.625Z,1.58
2023-01-28T08:46:21.031Z,2.17
2023-01-28T08:49:06.483Z,1.92
2023-01-28T08:51:52.115Z,1.83
2023-01-28T08:54:37.316Z,2.50
2023-01-28T08:57:22.418Z,2.17
2023-01-28T09:00:10.754Z,2.25
2023-01-28T09:02:55.997Z,2.15
2023-01-28T09:05:41.182Z,1.75
2023-01-28T09:08:26.337Z,1.30
2023-01-28T09:11:12.107Z,1.63
2023-01-28T09:13:58.065Z,1.95
2023-01-28T09:16:43.230Z,1.73
2023-01-28T09:19:29.583Z,1.70
2023-01-28T09:22:15.170Z,1.60
2023-01-28T09:25:00.196Z,1.02
2023-01-28T09:27:46.469Z,1.30
2023-01-28T09:30:32.146Z,1.30
2023-01-28T09:33:17.215Z,1.20
2023-01-28T09:36:05.527Z,1.50
2023-01-28T09:38:52.080Z,1.23
2023-01-28T09:41:49.785Z,1.23
2023-01-28T09:44:54.036Z,1.40
2023-01-28T09:47:50.666Z,1.25
2023-01-28T09:50:38.912Z,1.08
2023-01-28T09:53:33.435Z,1.38
2023-01-28T09:56:26.362Z,1.00
2023-01-28T09:59:22.808Z,1.20
2023-01-28T10:02:31.874Z,1.00
2023-01-28T10:05:54.348Z,0.98
2023-01-28T10:08:50.396Z,0.80
2023-01-28T10:11:50.929Z,1.10
2023-01-28T10:14:54.878Z,0.90
2023-01-28T10:17:49.569Z,1.23
2023-01-28T10:20:52.256Z,1.05
2023-01-28T10:23:49.022Z,1.63
2023-01-28T10:26:38.393Z,1.00
2023-01-28T10:29:28.755Z,1.13
2023-01-28T10:32:27.971Z,1.30
2023-01-28T10:35:13.518Z,1.23
2023-01-28T10:38:07.370Z,1.08
2023-01-28T10:40:52.901Z,0.90
2023-01-28T10:43:41.706Z,1.17
2023-01-28T10:46:32.006Z,1.13
2023-01-28T10:49:29.389Z,1.10
2023-01-28T10:52:16.120Z,1.00
2023-01-28T10:55:06.381Z,1.25
2023-01-28T10:57:53.115Z,0.88
2023-01-28T11:00:38.604Z,1.08
2023-01-28T11:03:28.627Z,1.20
2023-01-28T11:06:29.509Z,1.20
2023-01-28T11:09:42.091Z,1.10
2023-01-28T11:12:30.259Z,0.80
2023-01-28T11:15:18.449Z,1.30
2023-01-28T11:18:18.001Z,1.17
2023-01-28T11:21:06.241Z,0.85
2023-01-28T11:23:58.978Z,1.10
2023-01-28T11:26:49.253Z,1.40
2023-01-28T11:29:39.802Z,1.33
2023-01-28T11:32:26.799Z,1.90
2023-01-28T11:35:25.612Z,1.17
2023-01-28T11:38:19.336Z,1.70
2023-01-28T11:41:05.602Z,2.10
2023-01-28T11:43:51.835Z,1.75
2023-01-28T11:47:16.411Z,1.00
2023-01-28T11:50:20.937Z,1.00
2023-01-28T11:53:30.175Z,0.90
2023-01-28T11:56:20.294Z,0.85
2023-01-28T11:59:16.711Z,1.25
2023-01-28T12:02:10.152Z,3.20
2023-01-28T12:05:14.678Z,1.40
2023-01-28T12:08:18.767Z,1.15
2023-01-28T12:11:48.392Z,0.98
2023-01-28T12:15:07.021Z,1.23
2023-01-28T12:18:03.978Z,1.20
2023-01-28T12:21:11.072Z,1.52
2023-01-28T12:24:17.590Z,1.20
2023-01-28T12:27:19.603Z,2.00
2023-01-28T12:30:35.780Z,1.73
2023-01-28T12:33:43.253Z,1.50
2023-01-28T12:36:57.462Z,1.75
2023-01-28T12:39:59.909Z,1.48
2023-01-28T12:43:02.750Z,1.30
2023-01-28T12:45:55.318Z,1.30
2023-01-28T12:48:47.033Z,1.52
2023-01-28T12:51:44.285Z,1.38
2023-01-28T12:54:49.500Z,1.15
2023-01-28T12:57:35.932Z,1.52
2023-01-28T13:00:36.985Z,0.90
2023-01-28T13:03:26.910Z,1.15
2023-01-28T13:06:19.815Z,1.45
2023-01-28T13:09:19.129Z,1.30
2023-01-28T13:12:05.737Z,1.60
2023-01-28T13:14:54.053Z,1.20
2023-01-28T13:17:39.473Z,0.90
2023-01-28T13:20:46.538Z,0.70
2023-01-28T13:23:37.925Z,1.33
2023-01-28T13:26:24.766Z,7.78
2023-01-28T13:29:24.318Z,2.45
2023-01-28T13:32:31.923Z,1.13
2023-01-28T13:35:36.313Z,1.70
2023-01-28T13:38:22.048Z,1.13
2023-01-28T13:41:07.227Z,1.38
2023-01-28T13:43:52.662Z,0.93
2023-01-28T13:46:39.308Z,1.27
2023-01-28T13:49:44.085Z,1.50
2023-01-28T13:52:52.115Z,0.70
2023-01-28T13:55:44.848Z,0.82
2023-01-28T13:58:36.535Z,1.17
2023-01-28T14:01:47.957Z,1.23
2023-01-28T14:04:39.685Z,0.85
2023-01-28T14:07:41.270Z,1.23
2023-01-28T14:10:47.920Z,1.20
2023-01-28T14:13:36.129Z,0.90
2023-01-28T14:16:56.711Z,0.60
2023-01-28T14:19:44.535Z,1.60
2023-01-28T14:22:29.605Z,1.05
2023-01-28T14:25:27.768Z,8.27
2023-01-28T14:28:26.591Z,2.10
2023-01-28T14:31:18.335Z,1.30
2023-01-28T14:34:20.057Z,1.33
2023-01-28T14:37:09.456Z,2.00
2023-01-28T14:40:00.129Z,1.02
2023-01-28T14:42:49.748Z,1.52
2023-01-28T14:45:51.099Z,1.40
2023-01-28T14:48:54.448Z,1.38
2023-01-28T14:52:04.064Z,1.58
2023-01-28T14:54:58.884Z,1.75
2023-01-28T14:57:54.297Z,1.85
2023-01-28T15:00:39.802Z,1.48
2023-01-28T15:03:27.486Z,1.38
2023-01-28T15:06:16.049Z,1.58
2023-01-28T15:09:09.398Z,1.38
2023-01-28T15:11:58.414Z,1.55
2023-01-28T15:14:45.755Z,1.88
2023-01-28T15:17:32.055Z,1.80
2023-01-28T15:20:20.251Z,1.67
2023-01-28T15:23:07.857Z,2.45
2023-01-28T15:25:55.316Z,1.50
2023-01-28T15:28:42.941Z,2.40
2023-01-28T15:31:31.339Z,2.05
2023-01-28T15:34:20.728Z,1.17
2023-01-28T15:37:06.259Z,1.92
2023-01-28T15:40:06.428Z,1.77
2023-01-28T15:42:53.821Z,1.17
2023-01-28T15:45:41.040Z,1.40
2023-01-28T15:48:32.275Z,1.27
2023-01-28T15:51:25.047Z,1.52
2023-01-28T15:54:11.049Z,1.77
2023-01-28T15:56:57.201Z,1.20
2023-01-28T15:59:43.895Z,1.90
2023-01-28T16:02:31.861Z,1.30
2023-01-28T16:05:28.348Z,1.50
2023-01-28T16:08:39.864Z,1.30
2023-01-28T16:11:28.573Z,1.25
2023-01-28T16:14:31.227Z,1.58
2023-01-28T16:17:18.840Z,1.63
2023-01-28T16:20:07.700Z,1.60
2023-01-28T16:22:59.373Z,1.83
2023-01-28T16:25:44.556Z,1.50
2023-01-28T16:28:30.608Z,1.75
2023-01-28T16:31:15.872Z,1.75
2023-01-28T16:34:01.447Z,2.97
2023-01-28T16:36:46.777Z,1.92
2023-01-28T16:39:31.867Z,1.40
2023-01-28T16:42:17.572Z,1.42
2023-01-28T16:45:03.640Z,1.50
2023-01-28T16:47:49.596Z,1.80
2023-01-28T16:50:39.888Z,1.95
2023-01-28T16:53:32.600Z,1.63
2023-01-28T16:56:44.520Z,2.20
2023-01-28T16:59:28.520Z,1.80
2023-01-28T17:02:15.997Z,1.95
2023-01-28T17:05:01.460Z,2.40
2023-01-28T17:07:49.027Z,2.40
2023-01-28T17:10:34.860Z,2.70
2023-01-28T17:13:20.030Z,1.58
2023-01-28T17:16:05.950Z,2.85
2023-01-28T17:18:52.143Z,1.95
2023-01-28T17:21:37.316Z,1.83
2023-01-28T17:24:23.031Z,2.65
2023-01-28T17:27:09.663Z,2.03
2023-01-28T17:29:54.965Z,1.73
